Terminal Aerodrome Forecast
Issued by NWS Pueblo, CO

Home | Current Version | Previous Version | Text Only | Print | Product List | Glossary On
Versions: 1 2 3 4 5 6 7 8 9 10 11 12 13 14 15 16 17 18 19 20 21 22 23 24 25 26 27 28 29
857
FTUS45 KPUB 251120
TAFALS
TAF
KALS 251120Z 2512/2612 23008KT P6SM BKN080
     FM251600 23010KT 5SM -SHRA BKN040
     FM251900 27015G25KT 2SM -SHRA BKN015 OVC030
     FM252300 30018G28KT 2SM -SHRASN OVC015
     FM260200 36012KT P6SM VCSH BKN030
     FM260700 01005KT P6SM SCT150=

USA.gov is the U.S. government's official web portal to all federal, state and local government web resources and services.